HAL811 KSFO-PHNL
Flight info
| Callsign | HAL811 |
|---|---|
| Flight time | N/A |
| Altitude | 38000 |
| Route | GNNRR3 BEBOP R464 BITTA MAGGI3 |
| Aircraft | A332/H-SDE3GHIJ2J3J5M1RVWXY/LB2D1 |
Departure
| Time | 2026-05-04 18:43 |
|---|---|
| Airport | San Francisco International Airport (KSFO) |
Arrival
| Time | N/A |
|---|---|
| Airport | Daniel K. Inouye International Airport (PHNL) |
| Time | Latitude | Longitude | Altitude | Speed | Heading |
|---|---|---|---|---|---|
| 2026-05-04 17:47 | 37.61325 | -122.38986 | 26 ft | 0 kts | 118° |
| 2026-05-04 18:29 | 37.61330 | -122.38997 | 26 ft | 4 kts | 119° |
| 2026-05-04 18:29 | 37.61342 | -122.39027 | 31 ft | 4 kts | 112° |
| 2026-05-04 18:29 | 37.61354 | -122.39056 | 31 ft | 4 kts | 135° |
| 2026-05-04 18:29 | 37.61359 | -122.39062 | 31 ft | 1 kts | 147° |
| 2026-05-04 18:34 | 37.61358 | -122.39061 | 31 ft | 1 kts | 148° |
| 2026-05-04 18:34 | 37.61354 | -122.39060 | 31 ft | 1 kts | 160° |
| 2026-05-04 18:34 | 37.61343 | -122.39061 | 29 ft | 2 kts | 184° |
| 2026-05-04 18:34 | 37.61318 | -122.39084 | 28 ft | 12 kts | 219° |
| 2026-05-04 18:35 | 37.61246 | -122.39157 | 30 ft | 13 kts | 214° |
| 2026-05-04 18:35 | 37.61165 | -122.39190 | 30 ft | 12 kts | 178° |
| 2026-05-04 18:35 | 37.61098 | -122.39136 | 31 ft | 12 kts | 128° |
| 2026-05-04 18:35 | 37.61044 | -122.39053 | 27 ft | 12 kts | 133° |
| 2026-05-04 18:36 | 37.61016 | -122.38958 | 31 ft | 14 kts | 86° |
| 2026-05-04 18:36 | 37.60994 | -122.38830 | 31 ft | 16 kts | 118° |
| 2026-05-04 18:36 | 37.60941 | -122.38699 | 31 ft | 18 kts | 118° |
| 2026-05-04 18:36 | 37.60886 | -122.38556 | 28 ft | 18 kts | 107° |
| 2026-05-04 18:37 | 37.60884 | -122.38398 | 27 ft | 18 kts | 82° |
| 2026-05-04 18:37 | 37.60879 | -122.38240 | 26 ft | 18 kts | 96° |
| 2026-05-04 18:37 | 37.60836 | -122.38094 | 28 ft | 18 kts | 116° |
| 2026-05-04 18:37 | 37.60777 | -122.37956 | 29 ft | 18 kts | 121° |
| 2026-05-04 18:38 | 37.60777 | -122.37823 | 29 ft | 16 kts | 46° |
| 2026-05-04 18:38 | 37.60869 | -122.37754 | 30 ft | 16 kts | 28° |
| 2026-05-04 18:38 | 37.60969 | -122.37688 | 31 ft | 17 kts | 27° |
| 2026-05-04 18:38 | 37.61078 | -122.37620 | 27 ft | 18 kts | 26° |
| 2026-05-04 18:39 | 37.61195 | -122.37539 | 29 ft | 22 kts | 29° |
| 2026-05-04 18:39 | 37.61349 | -122.37435 | 30 ft | 28 kts | 27° |
| 2026-05-04 18:39 | 37.61522 | -122.37302 | 31 ft | 29 kts | 49° |
| 2026-05-04 18:39 | 37.61535 | -122.37073 | 28 ft | 27 kts | 118° |
| 2026-05-04 18:40 | 37.61440 | -122.36876 | 31 ft | 25 kts | 136° |
| 2026-05-04 18:40 | 37.61333 | -122.36709 | 26 ft | 24 kts | 120° |
| 2026-05-04 18:40 | 37.61253 | -122.36522 | 29 ft | 24 kts | 117° |
| 2026-05-04 18:40 | 37.61177 | -122.36335 | 30 ft | 24 kts | 117° |
| 2026-05-04 18:41 | 37.61101 | -122.36149 | 30 ft | 24 kts | 117° |
| 2026-05-04 18:41 | 37.61061 | -122.35959 | 26 ft | 22 kts | 69° |
| 2026-05-04 18:41 | 37.61181 | -122.35903 | 28 ft | 18 kts | 330° |
| 2026-05-04 18:41 | 37.61219 | -122.35955 | 31 ft | 0 kts | 300° |
| 2026-05-04 18:42 | 37.61242 | -122.36007 | 31 ft | 29 kts | 300° |
| 2026-05-04 18:42 | 37.61437 | -122.36464 | 28 ft | 88 kts | 296° |
| 2026-05-04 18:42 | 37.61798 | -122.37333 | 31 ft | 138 kts | 297° |
| 2026-05-04 18:42 | 37.62328 | -122.38584 | 51 ft | 183 kts | 300° |
| 2026-05-04 18:43 | 37.62989 | -122.39978 | 683 ft | 185 kts | 300° |
| 2026-05-04 18:43 | 37.63609 | -122.41360 | 1472 ft | 182 kts | 296° |
| 2026-05-04 18:43 | 37.64235 | -122.42880 | 1768 ft | 210 kts | 296° |
| 2026-05-04 18:43 | 37.64962 | -122.44612 | 1960 ft | 235 kts | 297° |
| 2026-05-04 18:44 | 37.65773 | -122.46483 | 2401 ft | 247 kts | 298° |
| 2026-05-04 18:44 | 37.66311 | -122.47774 | 2841 ft | 249 kts | 294° |
| 2026-05-04 18:44 | 37.66951 | -122.50538 | 3613 ft | 252 kts | 275° |
| 2026-05-04 18:44 | 37.66848 | -122.52731 | 4020 ft | 252 kts | 258° |
| 2026-05-04 18:45 | 37.66365 | -122.54882 | 4656 ft | 257 kts | 252° |
| 2026-05-04 18:45 | 37.65798 | -122.57029 | 5336 ft | 261 kts | 250° |
| 2026-05-04 18:45 | 37.65213 | -122.59227 | 5958 ft | 268 kts | 250° |
| 2026-05-04 18:45 | 37.64618 | -122.61482 | 6583 ft | 274 kts | 249° |
| 2026-05-04 18:46 | 37.64014 | -122.63786 | 7222 ft | 279 kts | 251° |
| 2026-05-04 18:46 | 37.63403 | -122.66132 | 7884 ft | 283 kts | 251° |
| 2026-05-04 18:46 | 37.62786 | -122.68509 | 8599 ft | 286 kts | 251° |
| 2026-05-04 18:46 | 37.62164 | -122.70905 | 9309 ft | 290 kts | 252° |
| 2026-05-04 18:47 | 37.61530 | -122.73349 | 9846 ft | 294 kts | 252° |
| 2026-05-04 18:47 | 37.60897 | -122.75783 | 10013 ft | 297 kts | 252° |
| 2026-05-04 18:47 | 37.60254 | -122.78258 | 10022 ft | 297 kts | 252° |
| 2026-05-04 18:47 | 37.59610 | -122.80733 | 10039 ft | 297 kts | 252° |
| 2026-05-04 18:48 | 37.58961 | -122.83221 | 10261 ft | 303 kts | 252° |
| 2026-05-04 18:48 | 37.58283 | -122.85823 | 10490 ft | 322 kts | 252° |
| 2026-05-04 18:48 | 37.57589 | -122.88483 | 10709 ft | 340 kts | 252° |
| 2026-05-04 18:49 | 37.57098 | -122.90356 | 10882 ft | 351 kts | 252° |
| 2026-05-04 18:49 | 37.56333 | -122.93282 | 11316 ft | 360 kts | 252° |
| 2026-05-04 18:49 | 37.55533 | -122.96340 | 11900 ft | 366 kts | 252° |
| 2026-05-04 18:49 | 37.54740 | -122.99363 | 12494 ft | 370 kts | 252° |
| 2026-05-04 18:50 | 37.53927 | -123.02462 | 13101 ft | 375 kts | 252° |
| 2026-05-04 18:50 | 37.53104 | -123.05597 | 13706 ft | 379 kts | 252° |
| 2026-05-04 18:50 | 37.52269 | -123.08768 | 14257 ft | 383 kts | 252° |
| 2026-05-04 18:50 | 37.51425 | -123.11972 | 14789 ft | 387 kts | 252° |
| 2026-05-04 18:51 | 37.50572 | -123.15206 | 15330 ft | 391 kts | 252° |
| 2026-05-04 18:51 | 37.49706 | -123.18484 | 15893 ft | 395 kts | 252° |
| 2026-05-04 18:51 | 37.48836 | -123.21777 | 16423 ft | 398 kts | 252° |
| 2026-05-04 18:51 | 37.47955 | -123.25102 | 16959 ft | 402 kts | 252° |
| 2026-05-04 18:52 | 37.47065 | -123.28460 | 17478 ft | 406 kts | 252° |
| 2026-05-04 18:52 | 37.46166 | -123.31847 | 17995 ft | 410 kts | 252° |
| 2026-05-04 18:52 | 37.45255 | -123.35275 | 18492 ft | 414 kts | 252° |
| 2026-05-04 18:52 | 37.44335 | -123.38731 | 18912 ft | 418 kts | 252° |
| 2026-05-04 18:53 | 37.43405 | -123.42217 | 19326 ft | 423 kts | 252° |
| 2026-05-04 18:53 | 37.42463 | -123.45747 | 19754 ft | 427 kts | 252° |
| 2026-05-04 18:53 | 37.41514 | -123.49300 | 20160 ft | 430 kts | 252° |
| 2026-05-04 18:53 | 37.40555 | -123.52883 | 20564 ft | 434 kts | 252° |
| 2026-05-04 18:54 | 37.39585 | -123.56501 | 20970 ft | 438 kts | 252° |
| 2026-05-04 18:54 | 37.38608 | -123.60143 | 21369 ft | 442 kts | 252° |
| 2026-05-04 18:54 | 37.37619 | -123.63820 | 21763 ft | 446 kts | 252° |
| 2026-05-04 18:54 | 37.36623 | -123.67522 | 22152 ft | 449 kts | 252° |
| 2026-05-04 18:55 | 37.35617 | -123.71254 | 22588 ft | 451 kts | 252° |
| 2026-05-04 18:55 | 37.33586 | -123.78775 | 23358 ft | 458 kts | 252° |
| 2026-05-04 18:55 | 37.32556 | -123.82579 | 23716 ft | 462 kts | 252° |
| 2026-05-04 18:56 | 37.31516 | -123.86415 | 24018 ft | 465 kts | 252° |
| 2026-05-04 18:56 | 37.30470 | -123.90270 | 24332 ft | 468 kts | 252° |
| 2026-05-04 18:56 | 37.29770 | -123.92843 | 24535 ft | 470 kts | 252° |
| 2026-05-04 18:56 | 37.28711 | -123.96732 | 24853 ft | 473 kts | 252° |
| 2026-05-04 18:57 | 37.27642 | -124.00654 | 25151 ft | 476 kts | 252° |
| 2026-05-04 18:57 | 37.26215 | -124.05883 | 25557 ft | 480 kts | 252° |
| 2026-05-04 18:57 | 37.25128 | -124.09855 | 25864 ft | 483 kts | 252° |
| 2026-05-04 18:57 | 37.24390 | -124.12551 | 26066 ft | 485 kts | 252° |
| 2026-05-04 18:58 | 37.23289 | -124.16565 | 26364 ft | 487 kts | 252° |
| 2026-05-04 18:58 | 37.22180 | -124.20603 | 26657 ft | 490 kts | 252° |
| 2026-05-04 18:58 | 37.21065 | -124.24657 | 26926 ft | 494 kts | 252° |
| 2026-05-04 18:58 | 37.19940 | -124.28743 | 27207 ft | 497 kts | 252° |
| 2026-05-04 18:59 | 37.18803 | -124.32862 | 27498 ft | 500 kts | 252° |
| 2026-05-04 18:59 | 37.17663 | -124.36988 | 27776 ft | 503 kts | 252° |
| 2026-05-04 18:59 | 37.16512 | -124.41149 | 28062 ft | 505 kts | 252° |
| 2026-05-04 18:59 | 37.15368 | -124.45273 | 28346 ft | 508 kts | 252° |
| 2026-05-04 19:00 | 37.14204 | -124.49466 | 28621 ft | 511 kts | 252° |
| 2026-05-04 19:00 | 37.13032 | -124.53683 | 28875 ft | 514 kts | 252° |
| 2026-05-04 19:00 | 37.11850 | -124.57928 | 29169 ft | 517 kts | 252° |
| 2026-05-04 19:00 | 37.10661 | -124.62187 | 29440 ft | 519 kts | 252° |
| 2026-05-04 19:01 | 37.09464 | -124.66471 | 29709 ft | 522 kts | 252° |
| 2026-05-04 19:01 | 37.08261 | -124.70772 | 29994 ft | 524 kts | 252° |
| 2026-05-04 19:01 | 37.07051 | -124.75088 | 30248 ft | 527 kts | 252° |
| 2026-05-04 19:01 | 37.05835 | -124.79418 | 30601 ft | 526 kts | 252° |
| 2026-05-04 19:02 | 37.04623 | -124.83727 | 30979 ft | 524 kts | 252° |
| 2026-05-04 19:02 | 37.03412 | -124.88025 | 31359 ft | 523 kts | 252° |
| 2026-05-04 19:02 | 37.02207 | -124.92296 | 31825 ft | 519 kts | 252° |
| 2026-05-04 19:02 | 37.01012 | -124.96525 | 32385 ft | 513 kts | 252° |
| 2026-05-04 19:03 | 36.99833 | -125.00705 | 32938 ft | 507 kts | 252° |
| 2026-05-04 19:03 | 36.98693 | -125.04859 | 33403 ft | 502 kts | 253° |
| 2026-05-04 19:03 | 36.97577 | -125.08998 | 33691 ft | 503 kts | 253° |
| 2026-05-04 19:03 | 36.96465 | -125.13155 | 33905 ft | 504 kts | 253° |
| 2026-05-04 19:04 | 36.95352 | -125.17318 | 34212 ft | 503 kts | 253° |
| 2026-05-04 19:04 | 36.94243 | -125.21450 | 34533 ft | 500 kts | 253° |
| 2026-05-04 19:04 | 36.93136 | -125.25553 | 34847 ft | 497 kts | 253° |
| 2026-05-04 19:04 | 36.92042 | -125.29596 | 35109 ft | 496 kts | 253° |
| 2026-05-04 19:05 | 36.90936 | -125.33671 | 35362 ft | 495 kts | 253° |
| 2026-05-04 19:05 | 36.89831 | -125.37731 | 35633 ft | 493 kts | 252° |
| 2026-05-04 19:05 | 36.88728 | -125.41779 | 35905 ft | 491 kts | 252° |
| 2026-05-04 19:05 | 36.87628 | -125.45808 | 36161 ft | 490 kts | 252° |
| 2026-05-04 19:06 | 36.86529 | -125.49827 | 36404 ft | 488 kts | 252° |
| 2026-05-04 19:06 | 36.85432 | -125.53833 | 36658 ft | 486 kts | 252° |
| 2026-05-04 19:06 | 36.84338 | -125.57824 | 36921 ft | 485 kts | 252° |
| 2026-05-04 19:06 | 36.83247 | -125.61794 | 37148 ft | 483 kts | 252° |
| 2026-05-04 19:07 | 36.82157 | -125.65760 | 37372 ft | 482 kts | 252° |
| 2026-05-04 19:07 | 36.81067 | -125.69717 | 37587 ft | 481 kts | 252° |
| 2026-05-04 19:07 | 36.79981 | -125.73656 | 37807 ft | 480 kts | 252° |
| 2026-05-04 19:07 | 36.78895 | -125.77586 | 38013 ft | 478 kts | 252° |
| 2026-05-04 19:08 | 36.76723 | -125.85434 | 38089 ft | 478 kts | 252° |
| 2026-05-04 19:08 | 36.74549 | -125.93262 | 38089 ft | 477 kts | 252° |
| 2026-05-04 19:09 | 36.72374 | -126.01073 | 38091 ft | 477 kts | 252° |
| 2026-05-04 19:09 | 36.70192 | -126.08886 | 38091 ft | 477 kts | 252° |
| 2026-05-04 19:10 | 36.68006 | -126.16689 | 38089 ft | 477 kts | 252° |
| 2026-05-04 19:10 | 36.65812 | -126.24502 | 38092 ft | 477 kts | 252° |
| 2026-05-04 19:11 | 36.63614 | -126.32301 | 38092 ft | 478 kts | 252° |
| 2026-05-04 19:11 | 36.61409 | -126.40106 | 38092 ft | 478 kts | 252° |
| 2026-05-04 19:12 | 36.58092 | -126.51804 | 38082 ft | 478 kts | 252° |
| 2026-05-04 19:13 | 36.55889 | -126.59546 | 38089 ft | 478 kts | 252° |
| 2026-05-04 19:13 | 36.53665 | -126.67339 | 38089 ft | 478 kts | 252° |
| 2026-05-04 19:14 | 36.51438 | -126.75121 | 38085 ft | 478 kts | 252° |
| 2026-05-04 19:14 | 36.49203 | -126.82909 | 38088 ft | 478 kts | 252° |
| 2026-05-04 19:15 | 36.46962 | -126.90693 | 38090 ft | 478 kts | 252° |
| 2026-05-04 19:15 | 36.44718 | -126.98463 | 38092 ft | 478 kts | 252° |
| 2026-05-04 19:16 | 36.42464 | -127.06231 | 38091 ft | 478 kts | 252° |
| 2026-05-04 19:16 | 36.40204 | -127.13998 | 38091 ft | 478 kts | 252° |
| 2026-05-04 19:17 | 36.37939 | -127.21762 | 38089 ft | 478 kts | 252° |
| 2026-05-04 19:17 | 36.35670 | -127.29522 | 38083 ft | 478 kts | 252° |
| 2026-05-04 19:18 | 36.33393 | -127.37285 | 38086 ft | 479 kts | 252° |
| 2026-05-04 19:18 | 36.31112 | -127.45038 | 38090 ft | 479 kts | 252° |
| 2026-05-04 19:19 | 36.28828 | -127.52784 | 38088 ft | 479 kts | 252° |
| 2026-05-04 19:19 | 36.26548 | -127.60492 | 38085 ft | 479 kts | 252° |
| 2026-05-04 19:20 | 36.24251 | -127.68238 | 38085 ft | 479 kts | 252° |
| 2026-05-04 19:20 | 36.21950 | -127.75973 | 38078 ft | 478 kts | 252° |
| 2026-05-04 19:21 | 36.19644 | -127.83706 | 38080 ft | 478 kts | 252° |
| 2026-05-04 19:21 | 36.17336 | -127.91427 | 38083 ft | 478 kts | 252° |
| 2026-05-04 19:22 | 36.15020 | -127.99145 | 38085 ft | 478 kts | 252° |
| 2026-05-04 19:22 | 36.12704 | -128.06849 | 38087 ft | 478 kts | 252° |
| 2026-05-04 19:23 | 36.10383 | -128.14547 | 38082 ft | 478 kts | 252° |
| 2026-05-04 19:23 | 36.08059 | -128.22235 | 38081 ft | 477 kts | 252° |
| 2026-05-04 19:24 | 36.05730 | -128.29916 | 38085 ft | 477 kts | 252° |
| 2026-05-04 19:24 | 36.03399 | -128.37588 | 38086 ft | 477 kts | 252° |
| 2026-05-04 19:25 | 36.01061 | -128.45260 | 38086 ft | 477 kts | 252° |
| 2026-05-04 19:25 | 35.98718 | -128.52929 | 38086 ft | 477 kts | 252° |
| 2026-05-04 19:26 | 35.96371 | -128.60590 | 38086 ft | 477 kts | 252° |
| 2026-05-04 19:26 | 35.94031 | -128.68207 | 38085 ft | 477 kts | 252° |
| 2026-05-04 19:27 | 35.91675 | -128.75854 | 38087 ft | 476 kts | 252° |
| 2026-05-04 19:27 | 35.89318 | -128.83487 | 38089 ft | 476 kts | 252° |
| 2026-05-04 19:28 | 35.86956 | -128.91114 | 38083 ft | 476 kts | 252° |
| 2026-05-04 19:28 | 35.84589 | -128.98738 | 38091 ft | 475 kts | 252° |
| 2026-05-04 19:29 | 35.82222 | -129.06343 | 38090 ft | 475 kts | 252° |
| 2026-05-04 19:29 | 35.79850 | -129.13942 | 38088 ft | 475 kts | 252° |
| 2026-05-04 19:30 | 35.77475 | -129.21529 | 38094 ft | 474 kts | 252° |
| 2026-05-04 19:30 | 35.75097 | -129.29108 | 38094 ft | 474 kts | 252° |
| 2026-05-04 19:31 | 35.72714 | -129.36685 | 38082 ft | 474 kts | 253° |
| 2026-05-04 19:31 | 35.70330 | -129.44242 | 38097 ft | 473 kts | 253° |
| 2026-05-04 19:32 | 35.67947 | -129.51781 | 38098 ft | 473 kts | 253° |
| 2026-05-04 19:32 | 35.65560 | -129.59310 | 38089 ft | 473 kts | 253° |
| 2026-05-04 19:33 | 35.63170 | -129.66831 | 38102 ft | 472 kts | 253° |
| 2026-05-04 19:33 | 35.60778 | -129.74338 | 38102 ft | 471 kts | 253° |
| 2026-05-04 19:34 | 35.58399 | -129.81786 | 38084 ft | 471 kts | 253° |
| 2026-05-04 19:34 | 35.55996 | -129.89290 | 38102 ft | 471 kts | 253° |
| 2026-05-04 19:35 | 35.53595 | -129.96767 | 38098 ft | 470 kts | 253° |
| 2026-05-04 19:35 | 35.51193 | -130.04232 | 38094 ft | 470 kts | 253° |
| 2026-05-04 19:36 | 35.48786 | -130.11690 | 38109 ft | 469 kts | 253° |
| 2026-05-04 19:36 | 35.46376 | -130.19141 | 38110 ft | 469 kts | 253° |
| 2026-05-04 19:37 | 35.43965 | -130.26577 | 38098 ft | 469 kts | 253° |
| 2026-05-04 19:37 | 35.41550 | -130.34005 | 38116 ft | 469 kts | 253° |
| 2026-05-04 19:38 | 35.39128 | -130.41437 | 38116 ft | 469 kts | 253° |
| 2026-05-04 19:38 | 35.36702 | -130.48863 | 38106 ft | 469 kts | 253° |
| 2026-05-04 19:39 | 35.34288 | -130.56231 | 38119 ft | 469 kts | 253° |
| 2026-05-04 19:39 | 35.31855 | -130.63646 | 38121 ft | 469 kts | 253° |
| 2026-05-04 19:40 | 35.29415 | -130.71059 | 38124 ft | 469 kts | 253° |
| 2026-05-04 19:40 | 35.27367 | -130.77268 | 38124 ft | 469 kts | 253° |
| 2026-05-04 19:41 | 35.24934 | -130.84627 | 38126 ft | 469 kts | 253° |
| 2026-05-04 19:41 | 35.22477 | -130.92042 | 38111 ft | 469 kts | 253° |
| 2026-05-04 19:42 | 35.20021 | -130.99432 | 38127 ft | 469 kts | 253° |
| 2026-05-04 19:42 | 35.17565 | -131.06806 | 38127 ft | 469 kts | 253° |
| 2026-05-04 19:43 | 35.15103 | -131.14180 | 38117 ft | 468 kts | 253° |
| 2026-05-04 19:43 | 35.12636 | -131.21551 | 38135 ft | 468 kts | 253° |
| 2026-05-04 19:44 | 35.10171 | -131.28900 | 38140 ft | 467 kts | 253° |
| 2026-05-04 19:44 | 35.07703 | -131.36242 | 38124 ft | 467 kts | 253° |
| 2026-05-04 19:45 | 35.05231 | -131.43574 | 38150 ft | 466 kts | 253° |
| 2026-05-04 19:45 | 35.02759 | -131.50891 | 38144 ft | 466 kts | 253° |
| 2026-05-04 19:46 | 35.00300 | -131.58152 | 38133 ft | 466 kts | 252° |
| 2026-05-04 19:46 | 34.97822 | -131.65450 | 38149 ft | 465 kts | 252° |
| 2026-05-04 19:47 | 34.95326 | -131.72786 | 38155 ft | 465 kts | 252° |
| 2026-05-04 19:47 | 34.92856 | -131.80028 | 38148 ft | 465 kts | 252° |
| 2026-05-04 19:48 | 34.90373 | -131.87290 | 38167 ft | 464 kts | 252° |
| 2026-05-04 19:48 | 34.87890 | -131.94536 | 38159 ft | 464 kts | 252° |
| 2026-05-04 19:49 | 34.85402 | -132.01778 | 38161 ft | 463 kts | 252° |
| 2026-05-04 19:49 | 34.82918 | -132.08991 | 38168 ft | 461 kts | 252° |
| 2026-05-04 19:50 | 34.80437 | -132.16181 | 38166 ft | 461 kts | 252° |
| 2026-05-04 19:50 | 34.77953 | -132.23362 | 38165 ft | 460 kts | 252° |
| 2026-05-04 19:51 | 34.75474 | -132.30513 | 38174 ft | 458 kts | 252° |
| 2026-05-04 19:51 | 34.72996 | -132.37644 | 38175 ft | 458 kts | 252° |
| 2026-05-04 19:52 | 34.70513 | -132.44775 | 38176 ft | 457 kts | 253° |
| 2026-05-04 19:52 | 34.68035 | -132.51871 | 38180 ft | 456 kts | 253° |
| 2026-05-04 19:53 | 34.65558 | -132.58954 | 38183 ft | 456 kts | 253° |
| 2026-05-04 19:53 | 34.63079 | -132.66026 | 38183 ft | 454 kts | 253° |
| 2026-05-04 19:54 | 34.60603 | -132.73066 | 38185 ft | 452 kts | 253° |
| 2026-05-04 19:54 | 34.58133 | -132.80082 | 38193 ft | 452 kts | 253° |
| 2026-05-04 19:55 | 34.55659 | -132.87096 | 38182 ft | 452 kts | 253° |
| 2026-05-04 19:55 | 34.53179 | -132.94106 | 38201 ft | 452 kts | 253° |
| 2026-05-04 19:56 | 34.50693 | -133.01119 | 38187 ft | 453 kts | 253° |
| 2026-05-04 19:56 | 34.48198 | -133.08140 | 38195 ft | 453 kts | 253° |
| 2026-05-04 19:57 | 34.45702 | -133.15145 | 38196 ft | 452 kts | 253° |
| 2026-05-04 19:57 | 34.43206 | -133.22139 | 38199 ft | 452 kts | 253° |
| 2026-05-04 19:58 | 34.40708 | -133.29119 | 38202 ft | 450 kts | 254° |
| 2026-05-04 19:58 | 34.38222 | -133.36051 | 38203 ft | 448 kts | 254° |
| 2026-05-04 19:59 | 34.35739 | -133.42968 | 38203 ft | 448 kts | 254° |
| 2026-05-04 19:59 | 34.33251 | -133.49880 | 38205 ft | 447 kts | 254° |
| 2026-05-04 20:00 | 34.30784 | -133.56718 | 38209 ft | 446 kts | 254° |
| 2026-05-04 20:00 | 34.28300 | -133.63590 | 38173 ft | 446 kts | 255° |
| 2026-05-04 20:01 | 34.25814 | -133.70448 | 38213 ft | 444 kts | 255° |
| 2026-05-04 20:01 | 34.23335 | -133.77274 | 38214 ft | 444 kts | 255° |
| 2026-05-04 20:02 | 34.20848 | -133.84112 | 38194 ft | 443 kts | 255° |
| 2026-05-04 20:02 | 34.18364 | -133.90926 | 38215 ft | 443 kts | 255° |
| 2026-05-04 20:03 | 34.15880 | -133.97723 | 38216 ft | 442 kts | 255° |
| 2026-05-04 20:03 | 34.13394 | -134.04515 | 38206 ft | 442 kts | 255° |
| 2026-05-04 20:04 | 34.10905 | -134.11297 | 38229 ft | 442 kts | 255° |
| 2026-05-04 20:04 | 34.08415 | -134.18068 | 38217 ft | 441 kts | 255° |
| 2026-05-04 20:05 | 34.05923 | -134.24835 | 38214 ft | 441 kts | 254° |
| 2026-05-04 20:05 | 34.03428 | -134.31591 | 38226 ft | 441 kts | 254° |
| 2026-05-04 20:06 | 34.00928 | -134.38353 | 38232 ft | 441 kts | 254° |
| 2026-05-04 20:06 | 33.98428 | -134.45104 | 38225 ft | 441 kts | 254° |
| 2026-05-04 20:07 | 33.95922 | -134.51857 | 38230 ft | 441 kts | 254° |
| 2026-05-04 20:07 | 33.93415 | -134.58595 | 38229 ft | 441 kts | 254° |
| 2026-05-04 20:08 | 33.90922 | -134.65288 | 38230 ft | 441 kts | 253° |
| 2026-05-04 20:08 | 33.88409 | -134.72016 | 38233 ft | 440 kts | 253° |
| 2026-05-04 20:09 | 33.85898 | -134.78729 | 38241 ft | 440 kts | 253° |
| 2026-05-04 20:09 | 33.83378 | -134.85449 | 38244 ft | 440 kts | 253° |
| 2026-05-04 20:10 | 33.80857 | -134.92159 | 38247 ft | 440 kts | 253° |
| 2026-05-04 20:10 | 33.78334 | -134.98862 | 38248 ft | 440 kts | 253° |
| 2026-05-04 20:11 | 33.75805 | -135.05567 | 38248 ft | 440 kts | 253° |
| 2026-05-04 20:11 | 33.73274 | -135.12264 | 38250 ft | 440 kts | 253° |
| 2026-05-04 20:12 | 33.70735 | -135.18967 | 38242 ft | 440 kts | 253° |
| 2026-05-04 20:12 | 33.68210 | -135.25620 | 38245 ft | 440 kts | 252° |
| 2026-05-04 20:13 | 33.65667 | -135.32307 | 38251 ft | 440 kts | 252° |
| 2026-05-04 20:13 | 33.63121 | -135.38990 | 38240 ft | 440 kts | 252° |
| 2026-05-04 20:14 | 33.60570 | -135.45672 | 38249 ft | 440 kts | 252° |
| 2026-05-04 20:14 | 33.58021 | -135.52332 | 38248 ft | 439 kts | 252° |
| 2026-05-04 20:15 | 33.55470 | -135.58989 | 38246 ft | 439 kts | 252° |
| 2026-05-04 20:15 | 33.52916 | -135.65639 | 38245 ft | 439 kts | 252° |
| 2026-05-04 20:16 | 33.50362 | -135.72273 | 38254 ft | 438 kts | 252° |
| 2026-05-04 20:16 | 33.47805 | -135.78904 | 38251 ft | 438 kts | 252° |
| 2026-05-04 20:17 | 33.45247 | -135.85526 | 38260 ft | 437 kts | 252° |
| 2026-05-04 20:17 | 33.42693 | -135.92125 | 38259 ft | 437 kts | 252° |
| 2026-05-04 20:18 | 33.40137 | -135.98714 | 38253 ft | 436 kts | 251° |
| 2026-05-04 20:18 | 33.37578 | -136.05299 | 38262 ft | 436 kts | 251° |
| 2026-05-04 20:19 | 33.35016 | -136.11880 | 38255 ft | 436 kts | 251° |
| 2026-05-04 20:19 | 33.32453 | -136.18449 | 38262 ft | 435 kts | 251° |
| 2026-05-04 20:20 | 33.30323 | -136.23897 | 38268 ft | 435 kts | 251° |
| 2026-05-04 20:20 | 33.27757 | -136.30453 | 38268 ft | 435 kts | 251° |
| 2026-05-04 20:21 | 33.24769 | -136.38068 | 38266 ft | 435 kts | 251° |
| 2026-05-04 20:21 | 33.21329 | -136.46814 | 38273 ft | 435 kts | 251° |
| 2026-05-04 20:22 | 33.18756 | -136.53341 | 38273 ft | 435 kts | 251° |
| 2026-05-04 20:22 | 33.16179 | -136.59868 | 38280 ft | 434 kts | 250° |
| 2026-05-04 20:23 | 33.13601 | -136.66383 | 38287 ft | 433 kts | 250° |
| 2026-05-04 20:23 | 33.11041 | -136.72840 | 38281 ft | 433 kts | 250° |
| 2026-05-04 20:24 | 33.08463 | -136.79332 | 38273 ft | 433 kts | 250° |
| 2026-05-04 20:24 | 33.05880 | -136.85823 | 38278 ft | 433 kts | 250° |
| 2026-05-04 20:25 | 33.03298 | -136.92300 | 38277 ft | 433 kts | 250° |
| 2026-05-04 20:25 | 33.00712 | -136.98774 | 38278 ft | 433 kts | 250° |
| 2026-05-04 20:26 | 32.98125 | -137.05239 | 38275 ft | 432 kts | 250° |
| 2026-05-04 20:26 | 32.95536 | -137.11694 | 38277 ft | 432 kts | 250° |
| 2026-05-04 20:27 | 32.92943 | -137.18152 | 38269 ft | 432 kts | 250° |
| 2026-05-04 20:27 | 32.90351 | -137.24593 | 38282 ft | 432 kts | 250° |
| 2026-05-04 20:28 | 32.87754 | -137.31035 | 38279 ft | 431 kts | 250° |
| 2026-05-04 20:28 | 32.85154 | -137.37472 | 38286 ft | 431 kts | 250° |
| 2026-05-04 20:29 | 32.82552 | -137.43900 | 38284 ft | 431 kts | 249° |
| 2026-05-04 20:29 | 32.79950 | -137.50319 | 38288 ft | 431 kts | 249° |
| 2026-05-04 20:30 | 32.77344 | -137.56735 | 38287 ft | 431 kts | 249° |
| 2026-05-04 20:30 | 32.74734 | -137.63148 | 38290 ft | 431 kts | 249° |
| 2026-05-04 20:31 | 32.72122 | -137.69557 | 38290 ft | 431 kts | 249° |
| 2026-05-04 20:31 | 32.69507 | -137.75960 | 38288 ft | 431 kts | 249° |
| 2026-05-04 20:32 | 32.66908 | -137.82310 | 38292 ft | 431 kts | 249° |
| 2026-05-04 20:32 | 32.64290 | -137.88699 | 38292 ft | 430 kts | 249° |
| 2026-05-04 20:33 | 32.61669 | -137.95079 | 38292 ft | 430 kts | 249° |
| 2026-05-04 20:33 | 32.59042 | -138.01466 | 38281 ft | 430 kts | 248° |
| 2026-05-04 20:34 | 32.56417 | -138.07833 | 38296 ft | 430 kts | 248° |
| 2026-05-04 20:34 | 32.53789 | -138.14198 | 38292 ft | 429 kts | 248° |
| 2026-05-04 20:35 | 32.51161 | -138.20552 | 38297 ft | 429 kts | 248° |
| 2026-05-04 20:35 | 32.48530 | -138.26902 | 38289 ft | 429 kts | 248° |
| 2026-05-04 20:36 | 32.45897 | -138.33246 | 38305 ft | 429 kts | 248° |
| 2026-05-04 20:36 | 32.43259 | -138.39589 | 38304 ft | 429 kts | 248° |
| 2026-05-04 20:37 | 32.40620 | -138.45925 | 38302 ft | 429 kts | 248° |
| 2026-05-04 20:37 | 32.37981 | -138.52247 | 38296 ft | 428 kts | 248° |
| 2026-05-04 20:38 | 32.35336 | -138.58574 | 38303 ft | 428 kts | 248° |
| 2026-05-04 20:38 | 32.32689 | -138.64894 | 38305 ft | 428 kts | 248° |
| 2026-05-04 20:39 | 32.30043 | -138.71198 | 38301 ft | 428 kts | 247° |
| 2026-05-04 20:39 | 32.27399 | -138.77489 | 38296 ft | 427 kts | 247° |
| 2026-05-04 20:40 | 32.24751 | -138.83778 | 38308 ft | 427 kts | 247° |
| 2026-05-04 20:40 | 32.22099 | -138.90065 | 38306 ft | 427 kts | 247° |
| 2026-05-04 20:41 | 32.19445 | -138.96348 | 38302 ft | 427 kts | 247° |
| 2026-05-04 20:41 | 32.16783 | -139.02636 | 38301 ft | 427 kts | 247° |
| 2026-05-04 20:42 | 32.14140 | -139.08869 | 38302 ft | 428 kts | 247° |
| 2026-05-04 20:42 | 32.11480 | -139.15130 | 38306 ft | 427 kts | 247° |
| 2026-05-04 20:43 | 32.08799 | -139.21430 | 38305 ft | 427 kts | 247° |
| 2026-05-04 20:43 | 32.06153 | -139.27640 | 38296 ft | 427 kts | 247° |
| 2026-05-04 20:44 | 32.03484 | -139.33890 | 38303 ft | 426 kts | 246° |
| 2026-05-04 20:44 | 32.00818 | -139.40121 | 38306 ft | 425 kts | 246° |
| 2026-05-04 20:45 | 31.98147 | -139.46355 | 38306 ft | 425 kts | 246° |
| 2026-05-04 20:45 | 31.95480 | -139.52571 | 38307 ft | 425 kts | 246° |
| 2026-05-04 20:46 | 31.92809 | -139.58781 | 38309 ft | 424 kts | 246° |
| 2026-05-04 20:46 | 31.90143 | -139.64971 | 38309 ft | 424 kts | 246° |
| 2026-05-04 20:47 | 31.87474 | -139.71159 | 38309 ft | 424 kts | 246° |
| 2026-05-04 20:47 | 31.84803 | -139.77340 | 38309 ft | 424 kts | 246° |
| 2026-05-04 20:48 | 31.82132 | -139.83510 | 38312 ft | 423 kts | 246° |
| 2026-05-04 20:48 | 31.79460 | -139.89674 | 38314 ft | 423 kts | 246° |
| 2026-05-04 20:49 | 31.76784 | -139.95834 | 38314 ft | 423 kts | 246° |
| 2026-05-04 20:49 | 31.74105 | -140.01991 | 38314 ft | 422 kts | 246° |
| 2026-05-04 20:50 | 31.71435 | -140.08117 | 38312 ft | 421 kts | 246° |
| 2026-05-04 20:50 | 31.68765 | -140.14235 | 38311 ft | 421 kts | 246° |
| 2026-05-04 20:51 | 31.66091 | -140.20351 | 38317 ft | 421 kts | 245° |
| 2026-05-04 20:51 | 31.63416 | -140.26456 | 38314 ft | 420 kts | 245° |
| 2026-05-04 20:52 | 31.60746 | -140.32544 | 38311 ft | 420 kts | 245° |
| 2026-05-04 20:52 | 31.58066 | -140.38642 | 38314 ft | 420 kts | 245° |
| 2026-05-04 20:53 | 31.55385 | -140.44734 | 38314 ft | 420 kts | 245° |
| 2026-05-04 20:53 | 31.52704 | -140.50814 | 38314 ft | 419 kts | 245° |
| 2026-05-04 20:54 | 31.50021 | -140.56890 | 38314 ft | 419 kts | 245° |
| 2026-05-04 20:54 | 31.47336 | -140.62960 | 38314 ft | 420 kts | 245° |
| 2026-05-04 20:55 | 31.44644 | -140.69034 | 38311 ft | 420 kts | 245° |
| 2026-05-04 20:55 | 31.41975 | -140.75049 | 38314 ft | 419 kts | 245° |
| 2026-05-04 20:56 | 31.39283 | -140.81106 | 38314 ft | 419 kts | 245° |
| 2026-05-04 20:56 | 31.36590 | -140.87152 | 38314 ft | 419 kts | 245° |
| 2026-05-04 20:57 | 31.33887 | -140.93213 | 38313 ft | 419 kts | 245° |
| 2026-05-04 20:57 | 31.31190 | -140.99252 | 38314 ft | 419 kts | 245° |
| 2026-05-04 20:58 | 31.28492 | -141.05282 | 38314 ft | 419 kts | 245° |
| 2026-05-04 20:58 | 31.25790 | -141.11312 | 38300 ft | 419 kts | 245° |
| 2026-05-04 20:59 | 31.23082 | -141.17345 | 38312 ft | 419 kts | 245° |
| 2026-05-04 20:59 | 31.20372 | -141.23373 | 38311 ft | 419 kts | 245° |
| 2026-05-04 21:00 | 31.17677 | -141.29357 | 38314 ft | 419 kts | 245° |
| 2026-05-04 21:00 | 31.14961 | -141.35372 | 38319 ft | 419 kts | 244° |
| 2026-05-04 21:01 | 31.12245 | -141.41377 | 38311 ft | 418 kts | 244° |
| 2026-05-04 21:01 | 31.09969 | -141.46400 | 38314 ft | 418 kts | 244° |
| 2026-05-04 21:02 | 31.07248 | -141.52398 | 38314 ft | 418 kts | 244° |
| 2026-05-04 21:02 | 31.04541 | -141.58356 | 38323 ft | 418 kts | 244° |
| 2026-05-04 21:03 | 31.01817 | -141.64341 | 38314 ft | 417 kts | 244° |
| 2026-05-04 21:03 | 30.99095 | -141.70314 | 38315 ft | 417 kts | 244° |
| 2026-05-04 21:04 | 30.96370 | -141.76284 | 38312 ft | 417 kts | 244° |
| 2026-05-04 21:04 | 30.93643 | -141.82248 | 38313 ft | 417 kts | 244° |
| 2026-05-04 21:05 | 30.90914 | -141.88207 | 38310 ft | 417 kts | 244° |
| 2026-05-04 21:05 | 30.88183 | -141.94161 | 38309 ft | 417 kts | 244° |
| 2026-05-04 21:06 | 30.85451 | -142.00110 | 38313 ft | 417 kts | 244° |
| 2026-05-04 21:06 | 30.82711 | -142.06063 | 38312 ft | 417 kts | 244° |
| 2026-05-04 21:07 | 30.79974 | -142.12003 | 38304 ft | 412 kts | 244° |
| 2026-05-04 21:07 | 30.77271 | -142.17855 | 38307 ft | 414 kts | 244° |
| 2026-05-04 21:08 | 30.74526 | -142.23801 | 38307 ft | 418 kts | 244° |
| 2026-05-04 21:08 | 30.71771 | -142.29751 | 38315 ft | 417 kts | 244° |
| 2026-05-04 21:09 | 30.69037 | -142.35644 | 38308 ft | 416 kts | 244° |
| 2026-05-04 21:09 | 30.66269 | -142.41604 | 38305 ft | 416 kts | 244° |
| 2026-05-04 21:10 | 30.63535 | -142.47483 | 38308 ft | 416 kts | 244° |
| 2026-05-04 21:10 | 30.60780 | -142.53398 | 38315 ft | 417 kts | 244° |
| 2026-05-04 21:11 | 30.58017 | -142.59320 | 38309 ft | 417 kts | 244° |
| 2026-05-04 21:11 | 30.55257 | -142.65227 | 38310 ft | 417 kts | 244° |
| 2026-05-04 21:12 | 30.52492 | -142.71135 | 38306 ft | 417 kts | 244° |
| 2026-05-04 21:12 | 30.49724 | -142.77040 | 38316 ft | 417 kts | 244° |
| 2026-05-04 21:13 | 30.46953 | -142.82942 | 38305 ft | 416 kts | 244° |
| 2026-05-04 21:13 | 30.44180 | -142.88841 | 38303 ft | 416 kts | 244° |
| 2026-05-04 21:14 | 30.41405 | -142.94734 | 38304 ft | 417 kts | 244° |
| 2026-05-04 21:14 | 30.38626 | -143.00626 | 38304 ft | 416 kts | 244° |
| 2026-05-04 21:15 | 30.35862 | -143.06478 | 38301 ft | 417 kts | 244° |
| 2026-05-04 21:15 | 30.33059 | -143.12405 | 38301 ft | 417 kts | 244° |
| 2026-05-04 21:16 | 30.30289 | -143.18253 | 38304 ft | 417 kts | 244° |
| 2026-05-04 21:16 | 30.27498 | -143.24135 | 38303 ft | 417 kts | 244° |
| 2026-05-04 21:17 | 30.24701 | -143.30020 | 38301 ft | 418 kts | 244° |
| 2026-05-04 21:17 | 30.21900 | -143.35907 | 38299 ft | 418 kts | 244° |
| 2026-05-04 21:18 | 30.19092 | -143.41799 | 38304 ft | 418 kts | 244° |
| 2026-05-04 21:18 | 30.16282 | -143.47686 | 38304 ft | 418 kts | 244° |
| 2026-05-04 21:19 | 30.13470 | -143.53568 | 38302 ft | 418 kts | 244° |
| 2026-05-04 21:19 | 30.10655 | -143.59447 | 38302 ft | 418 kts | 244° |
| 2026-05-04 21:20 | 30.07839 | -143.65320 | 38298 ft | 418 kts | 244° |
| 2026-05-04 21:20 | 30.05015 | -143.71202 | 38308 ft | 418 kts | 244° |
| 2026-05-04 21:21 | 30.02193 | -143.77069 | 38294 ft | 419 kts | 244° |
| 2026-05-04 21:21 | 29.99361 | -143.82951 | 38298 ft | 419 kts | 243° |
| 2026-05-04 21:22 | 29.96527 | -143.88826 | 38302 ft | 419 kts | 243° |
| 2026-05-04 21:22 | 29.93687 | -143.94704 | 38302 ft | 419 kts | 243° |
| 2026-05-04 21:23 | 29.90847 | -144.00574 | 38298 ft | 419 kts | 243° |
| 2026-05-04 21:23 | 29.88021 | -144.06407 | 38297 ft | 420 kts | 243° |
| 2026-05-04 21:24 | 29.85172 | -144.12278 | 38301 ft | 420 kts | 243° |
| 2026-05-04 21:24 | 29.82318 | -144.18151 | 38302 ft | 420 kts | 243° |
| 2026-05-04 21:25 | 29.79444 | -144.24058 | 38297 ft | 420 kts | 243° |
| 2026-05-04 21:25 | 29.76601 | -144.29890 | 38294 ft | 421 kts | 243° |
| 2026-05-04 21:26 | 29.73733 | -144.35768 | 38299 ft | 421 kts | 243° |
| 2026-05-04 21:26 | 29.70861 | -144.41643 | 38297 ft | 421 kts | 243° |
| 2026-05-04 21:27 | 29.67988 | -144.47510 | 38295 ft | 421 kts | 243° |
| 2026-05-04 21:27 | 29.65112 | -144.53377 | 38297 ft | 421 kts | 243° |
| 2026-05-04 21:28 | 29.62224 | -144.59259 | 38290 ft | 422 kts | 243° |
| 2026-05-04 21:28 | 29.59338 | -144.65128 | 38288 ft | 422 kts | 243° |
| 2026-05-04 21:29 | 29.56444 | -144.71006 | 38292 ft | 422 kts | 243° |
| 2026-05-04 21:29 | 29.53550 | -144.76872 | 38297 ft | 422 kts | 243° |
| 2026-05-04 21:30 | 29.50654 | -144.82738 | 38292 ft | 423 kts | 243° |
| 2026-05-04 21:30 | 29.47749 | -144.88610 | 38293 ft | 423 kts | 243° |
| 2026-05-04 21:31 | 29.43387 | -144.97413 | 38289 ft | 423 kts | 243° |
| 2026-05-04 21:32 | 29.40475 | -145.03279 | 38292 ft | 423 kts | 243° |
| 2026-05-04 21:32 | 29.37559 | -145.09145 | 38281 ft | 424 kts | 243° |
| 2026-05-04 21:33 | 29.34638 | -145.15013 | 38285 ft | 424 kts | 243° |
| 2026-05-04 21:33 | 29.31729 | -145.20847 | 38284 ft | 424 kts | 243° |
| 2026-05-04 21:34 | 29.28803 | -145.26708 | 38288 ft | 424 kts | 243° |
| 2026-05-04 21:34 | 29.25867 | -145.32579 | 38281 ft | 424 kts | 243° |
| 2026-05-04 21:35 | 29.22933 | -145.38438 | 38264 ft | 424 kts | 243° |
| 2026-05-04 21:35 | 29.19992 | -145.44303 | 38284 ft | 424 kts | 243° |
| 2026-05-04 21:36 | 29.17053 | -145.50157 | 38283 ft | 424 kts | 243° |
| 2026-05-04 21:36 | 29.14105 | -145.56018 | 38282 ft | 425 kts | 243° |
| 2026-05-04 21:37 | 29.11150 | -145.61886 | 38279 ft | 425 kts | 243° |
| 2026-05-04 21:37 | 29.08195 | -145.67745 | 38279 ft | 425 kts | 243° |
| 2026-05-04 21:38 | 29.05237 | -145.73601 | 38276 ft | 425 kts | 243° |
| 2026-05-04 21:38 | 29.02276 | -145.79455 | 38283 ft | 426 kts | 243° |
| 2026-05-04 21:39 | 28.99308 | -145.85314 | 38275 ft | 427 kts | 243° |
| 2026-05-04 21:39 | 28.96349 | -145.91148 | 38276 ft | 427 kts | 243° |
| 2026-05-04 21:40 | 28.93371 | -145.97009 | 38279 ft | 427 kts | 242° |
| 2026-05-04 21:40 | 28.90389 | -146.02872 | 38273 ft | 427 kts | 242° |
| 2026-05-04 21:41 | 28.87403 | -146.08733 | 38272 ft | 427 kts | 242° |
| 2026-05-04 21:41 | 28.84419 | -146.14582 | 38271 ft | 427 kts | 242° |
| 2026-05-04 21:42 | 28.81427 | -146.20438 | 38271 ft | 427 kts | 242° |
| 2026-05-04 21:42 | 28.78943 | -146.25295 | 38271 ft | 427 kts | 242° |
| 2026-05-04 21:43 | 28.75952 | -146.31135 | 38268 ft | 427 kts | 242° |
| 2026-05-04 21:43 | 28.72953 | -146.36982 | 38270 ft | 428 kts | 242° |
| 2026-05-04 21:44 | 28.69949 | -146.42830 | 38271 ft | 428 kts | 242° |
| 2026-05-04 21:44 | 28.66940 | -146.48680 | 38267 ft | 428 kts | 242° |
| 2026-05-04 21:45 | 28.63929 | -146.54525 | 38267 ft | 428 kts | 242° |
| 2026-05-04 21:45 | 28.60914 | -146.60370 | 38248 ft | 428 kts | 242° |
| 2026-05-04 21:46 | 28.57892 | -146.66221 | 38268 ft | 429 kts | 242° |
| 2026-05-04 21:46 | 28.54884 | -146.72034 | 38268 ft | 428 kts | 242° |
| 2026-05-04 21:47 | 28.51858 | -146.77876 | 38265 ft | 428 kts | 242° |
| 2026-05-04 21:47 | 28.48832 | -146.83711 | 38265 ft | 429 kts | 242° |
| 2026-05-04 21:48 | 28.45797 | -146.89553 | 38262 ft | 429 kts | 242° |
| 2026-05-04 21:48 | 28.42754 | -146.95403 | 38262 ft | 430 kts | 242° |
| 2026-05-04 21:49 | 28.39715 | -147.01237 | 38262 ft | 429 kts | 242° |
| 2026-05-04 21:49 | 28.36671 | -147.07072 | 38262 ft | 429 kts | 242° |
| 2026-05-04 21:50 | 28.33626 | -147.12901 | 38261 ft | 429 kts | 242° |
| 2026-05-04 21:50 | 28.30571 | -147.18742 | 38260 ft | 430 kts | 242° |
| 2026-05-04 21:51 | 28.27513 | -147.24580 | 38252 ft | 430 kts | 242° |
| 2026-05-04 21:51 | 28.24460 | -147.30400 | 38257 ft | 429 kts | 242° |
| 2026-05-04 21:52 | 28.21408 | -147.36209 | 38260 ft | 429 kts | 242° |
| 2026-05-04 21:52 | 28.18353 | -147.42018 | 38254 ft | 429 kts | 242° |
| 2026-05-04 21:53 | 28.15291 | -147.47833 | 38254 ft | 430 kts | 242° |
| 2026-05-04 21:53 | 28.12246 | -147.53607 | 38252 ft | 429 kts | 242° |
| 2026-05-04 21:54 | 28.09161 | -147.59447 | 38255 ft | 429 kts | 242° |
| 2026-05-04 21:54 | 28.06100 | -147.65234 | 38256 ft | 428 kts | 242° |
| 2026-05-04 21:55 | 28.03037 | -147.71018 | 38252 ft | 428 kts | 242° |
| 2026-05-04 21:55 | 27.99972 | -147.76799 | 38251 ft | 429 kts | 242° |
| 2026-05-04 21:56 | 27.96903 | -147.82579 | 38255 ft | 429 kts | 242° |
| 2026-05-04 21:56 | 27.93850 | -147.88320 | 38263 ft | 428 kts | 242° |
| 2026-05-04 21:57 | 27.90779 | -147.94086 | 38243 ft | 428 kts | 242° |
| 2026-05-04 21:57 | 27.87706 | -147.99850 | 38258 ft | 428 kts | 242° |
| 2026-05-04 21:58 | 27.84630 | -148.05609 | 38245 ft | 428 kts | 242° |
| 2026-05-04 21:58 | 27.81552 | -148.11363 | 38266 ft | 428 kts | 242° |
| 2026-05-04 21:59 | 27.78471 | -148.17117 | 38242 ft | 428 kts | 242° |
| 2026-05-04 21:59 | 27.75386 | -148.22868 | 38243 ft | 427 kts | 242° |
| 2026-05-04 22:00 | 27.72305 | -148.28607 | 38253 ft | 427 kts | 242° |
| 2026-05-04 22:00 | 27.69220 | -148.34344 | 38247 ft | 427 kts | 242° |
| 2026-05-04 22:01 | 27.66136 | -148.40072 | 38247 ft | 427 kts | 242° |
| 2026-05-04 22:01 | 27.63044 | -148.45807 | 38247 ft | 427 kts | 241° |
| 2026-05-04 22:02 | 27.59952 | -148.51535 | 38240 ft | 428 kts | 241° |
| 2026-05-04 22:02 | 27.56855 | -148.57263 | 38246 ft | 427 kts | 241° |
| 2026-05-04 22:03 | 27.53760 | -148.62982 | 38235 ft | 427 kts | 241° |
| 2026-05-04 22:03 | 27.50666 | -148.68691 | 38238 ft | 427 kts | 241° |
| 2026-05-04 22:04 | 27.47569 | -148.74398 | 38243 ft | 427 kts | 241° |
| 2026-05-04 22:04 | 27.44471 | -148.80098 | 38239 ft | 427 kts | 241° |
| 2026-05-04 22:05 | 27.41367 | -148.85804 | 38241 ft | 427 kts | 241° |
| 2026-05-04 22:05 | 27.38262 | -148.91502 | 38238 ft | 427 kts | 241° |
| 2026-05-04 22:06 | 27.35152 | -148.97202 | 38234 ft | 427 kts | 241° |
| 2026-05-04 22:06 | 27.32065 | -149.02852 | 38233 ft | 427 kts | 241° |
| 2026-05-04 22:07 | 27.28950 | -149.08549 | 38242 ft | 427 kts | 241° |
| 2026-05-04 22:07 | 27.25828 | -149.14249 | 38240 ft | 428 kts | 241° |
| 2026-05-04 22:08 | 27.22711 | -149.19932 | 38238 ft | 427 kts | 241° |
| 2026-05-04 22:08 | 27.19595 | -149.25606 | 38238 ft | 426 kts | 241° |
| 2026-05-04 22:09 | 27.16478 | -149.31276 | 38236 ft | 427 kts | 241° |
| 2026-05-04 22:09 | 27.13360 | -149.36939 | 38235 ft | 427 kts | 241° |
| 2026-05-04 22:10 | 27.10233 | -149.42612 | 38237 ft | 427 kts | 241° |
| 2026-05-04 22:10 | 27.07110 | -149.48270 | 38225 ft | 427 kts | 241° |
| 2026-05-04 22:11 | 27.03983 | -149.53929 | 38238 ft | 427 kts | 241° |
| 2026-05-04 22:11 | 27.00851 | -149.59590 | 38238 ft | 427 kts | 241° |
| 2026-05-04 22:12 | 26.97719 | -149.65242 | 38236 ft | 427 kts | 241° |
| 2026-05-04 22:12 | 26.94587 | -149.70888 | 38233 ft | 427 kts | 241° |
| 2026-05-04 22:13 | 26.91451 | -149.76532 | 38232 ft | 427 kts | 241° |
| 2026-05-04 22:13 | 26.88311 | -149.82179 | 38214 ft | 426 kts | 241° |
| 2026-05-04 22:14 | 26.85168 | -149.87823 | 38233 ft | 427 kts | 241° |
| 2026-05-04 22:14 | 26.82025 | -149.93459 | 38233 ft | 426 kts | 241° |
| 2026-05-04 22:15 | 26.78882 | -149.99088 | 38234 ft | 426 kts | 241° |
| 2026-05-04 22:15 | 26.75737 | -150.04714 | 38236 ft | 427 kts | 241° |
| 2026-05-04 22:16 | 26.72588 | -150.10341 | 38232 ft | 427 kts | 241° |
| 2026-05-04 22:16 | 26.69457 | -150.15928 | 38224 ft | 426 kts | 241° |
| 2026-05-04 22:17 | 26.66303 | -150.21548 | 38228 ft | 426 kts | 241° |
| 2026-05-04 22:17 | 26.63145 | -150.27168 | 38227 ft | 427 kts | 241° |
| 2026-05-04 22:18 | 26.59985 | -150.32786 | 38230 ft | 427 kts | 241° |
| 2026-05-04 22:18 | 26.56826 | -150.38395 | 38228 ft | 427 kts | 241° |
| 2026-05-04 22:19 | 26.53663 | -150.44004 | 38227 ft | 427 kts | 241° |
| 2026-05-04 22:19 | 26.50498 | -150.49610 | 38220 ft | 426 kts | 241° |
| 2026-05-04 22:20 | 26.47333 | -150.55207 | 38224 ft | 426 kts | 241° |
| 2026-05-04 22:20 | 26.44169 | -150.60798 | 38224 ft | 426 kts | 241° |
| 2026-05-04 22:21 | 26.41003 | -150.66384 | 38224 ft | 426 kts | 241° |
| 2026-05-04 22:21 | 26.37833 | -150.71970 | 38224 ft | 426 kts | 241° |
| 2026-05-04 22:22 | 26.34659 | -150.77557 | 38222 ft | 426 kts | 241° |
| 2026-05-04 22:22 | 26.31479 | -150.83147 | 38218 ft | 426 kts | 241° |
| 2026-05-04 22:23 | 26.28318 | -150.88697 | 38216 ft | 426 kts | 241° |
| 2026-05-04 22:23 | 26.25141 | -150.94269 | 38222 ft | 426 kts | 241° |
| 2026-05-04 22:24 | 26.22478 | -150.98934 | 38221 ft | 426 kts | 241° |
| 2026-05-04 22:24 | 26.19314 | -151.04469 | 38218 ft | 426 kts | 241° |
| 2026-05-04 22:25 | 26.16132 | -151.10032 | 38219 ft | 426 kts | 241° |
| 2026-05-04 22:25 | 26.12945 | -151.15593 | 38220 ft | 426 kts | 241° |
| 2026-05-04 22:26 | 26.09758 | -151.21149 | 38219 ft | 425 kts | 241° |
| 2026-05-04 22:26 | 26.06579 | -151.26684 | 38219 ft | 424 kts | 241° |
| 2026-05-04 22:27 | 26.03399 | -151.32216 | 38215 ft | 425 kts | 241° |
| 2026-05-04 22:27 | 26.00212 | -151.37752 | 38217 ft | 425 kts | 241° |
| 2026-05-04 22:28 | 25.97028 | -151.43276 | 38214 ft | 425 kts | 241° |
| 2026-05-04 22:28 | 25.93838 | -151.48804 | 38216 ft | 425 kts | 241° |
| 2026-05-04 22:29 | 25.90645 | -151.54331 | 38213 ft | 424 kts | 241° |
| 2026-05-04 22:29 | 25.87457 | -151.59841 | 38216 ft | 424 kts | 241° |
| 2026-05-04 22:30 | 25.84269 | -151.65346 | 38217 ft | 424 kts | 241° |
| 2026-05-04 22:30 | 25.81081 | -151.70844 | 38215 ft | 424 kts | 241° |
| 2026-05-04 22:31 | 25.77887 | -151.76346 | 38213 ft | 424 kts | 241° |
| 2026-05-04 22:31 | 25.74693 | -151.81842 | 38211 ft | 424 kts | 241° |
| 2026-05-04 22:32 | 25.71516 | -151.87301 | 38223 ft | 423 kts | 241° |
| 2026-05-04 22:32 | 25.68323 | -151.92782 | 38211 ft | 423 kts | 241° |
| 2026-05-04 22:33 | 25.65132 | -151.98252 | 38217 ft | 422 kts | 240° |
| 2026-05-04 22:33 | 25.61944 | -152.03713 | 38204 ft | 422 kts | 240° |
| 2026-05-04 22:34 | 25.58754 | -152.09169 | 38207 ft | 422 kts | 240° |
| 2026-05-04 22:34 | 25.55559 | -152.14628 | 38206 ft | 422 kts | 240° |
| 2026-05-04 22:35 | 25.52361 | -152.20085 | 38201 ft | 422 kts | 240° |
| 2026-05-04 22:35 | 25.49161 | -152.25539 | 38205 ft | 422 kts | 240° |
| 2026-05-04 22:36 | 25.45959 | -152.30991 | 38205 ft | 422 kts | 240° |
| 2026-05-04 22:36 | 25.42752 | -152.36444 | 38207 ft | 423 kts | 240° |
| 2026-05-04 22:37 | 25.39542 | -152.41897 | 38203 ft | 423 kts | 240° |
| 2026-05-04 22:37 | 25.36332 | -152.47343 | 38204 ft | 423 kts | 240° |
| 2026-05-04 22:38 | 25.33139 | -152.52754 | 38210 ft | 423 kts | 240° |
| 2026-05-04 22:38 | 25.29927 | -152.58191 | 38206 ft | 422 kts | 240° |
| 2026-05-04 22:39 | 25.26717 | -152.63618 | 38206 ft | 422 kts | 240° |
| 2026-05-04 22:39 | 25.23506 | -152.69041 | 38200 ft | 422 kts | 240° |
| 2026-05-04 22:40 | 25.20291 | -152.74464 | 38202 ft | 422 kts | 240° |
| 2026-05-04 22:40 | 25.17078 | -152.79878 | 38200 ft | 422 kts | 240° |
| 2026-05-04 22:41 | 25.13855 | -152.85303 | 38202 ft | 422 kts | 240° |
| 2026-05-04 22:41 | 25.10632 | -152.90722 | 38195 ft | 422 kts | 240° |
| 2026-05-04 22:42 | 25.07408 | -152.96136 | 38198 ft | 422 kts | 240° |
| 2026-05-04 22:42 | 25.04181 | -153.01547 | 38201 ft | 422 kts | 240° |
| 2026-05-04 22:43 | 25.00956 | -153.06950 | 38195 ft | 422 kts | 240° |
| 2026-05-04 22:43 | 24.97727 | -153.12354 | 38198 ft | 422 kts | 240° |
| 2026-05-04 22:44 | 24.94497 | -153.17754 | 38198 ft | 422 kts | 240° |
| 2026-05-04 22:44 | 24.91262 | -153.23156 | 38195 ft | 422 kts | 240° |
| 2026-05-04 22:45 | 24.88025 | -153.28555 | 38197 ft | 422 kts | 240° |
| 2026-05-04 22:45 | 24.83175 | -153.36632 | 38198 ft | 421 kts | 240° |
| 2026-05-04 22:46 | 24.79943 | -153.42007 | 38197 ft | 421 kts | 240° |
| 2026-05-04 22:46 | 24.76707 | -153.47383 | 38198 ft | 421 kts | 240° |
| 2026-05-04 22:47 | 24.73472 | -153.52752 | 38195 ft | 421 kts | 240° |
| 2026-05-04 22:47 | 24.70235 | -153.58118 | 38195 ft | 421 kts | 240° |
| 2026-05-04 22:48 | 24.66998 | -153.63479 | 38197 ft | 421 kts | 240° |
| 2026-05-04 22:48 | 24.63763 | -153.68829 | 38194 ft | 420 kts | 240° |
| 2026-05-04 22:49 | 24.60565 | -153.74109 | 38191 ft | 414 kts | 240° |
| 2026-05-04 22:49 | 24.57379 | -153.79366 | 38193 ft | 413 kts | 240° |
| 2026-05-04 22:50 | 24.54199 | -153.84612 | 38193 ft | 413 kts | 240° |
| 2026-05-04 22:50 | 24.51012 | -153.89862 | 38194 ft | 413 kts | 240° |
| 2026-05-04 22:51 | 24.47818 | -153.95117 | 38192 ft | 413 kts | 240° |
| 2026-05-04 22:51 | 24.44631 | -154.00353 | 38192 ft | 412 kts | 240° |
| 2026-05-04 22:52 | 24.41448 | -154.05578 | 38194 ft | 411 kts | 240° |
| 2026-05-04 22:52 | 24.38266 | -154.10797 | 38180 ft | 412 kts | 240° |
| 2026-05-04 22:53 | 24.35075 | -154.16024 | 38184 ft | 412 kts | 240° |
| 2026-05-04 22:53 | 24.31882 | -154.21249 | 38184 ft | 412 kts | 240° |
| 2026-05-04 22:54 | 24.28685 | -154.26461 | 38184 ft | 412 kts | 240° |
| 2026-05-04 22:54 | 24.25466 | -154.31670 | 38163 ft | 412 kts | 240° |
| 2026-05-04 22:55 | 24.22250 | -154.36868 | 38190 ft | 412 kts | 240° |
| 2026-05-04 22:55 | 24.19040 | -154.42054 | 38169 ft | 411 kts | 240° |
| 2026-05-04 22:56 | 24.15830 | -154.47234 | 38189 ft | 411 kts | 240° |
| 2026-05-04 22:56 | 24.12619 | -154.52412 | 38173 ft | 411 kts | 240° |
| 2026-05-04 22:57 | 24.09403 | -154.57592 | 38188 ft | 411 kts | 240° |
| 2026-05-04 22:57 | 24.06189 | -154.62762 | 38187 ft | 411 kts | 240° |
| 2026-05-04 22:58 | 24.02971 | -154.67935 | 38169 ft | 411 kts | 240° |
| 2026-05-04 22:58 | 23.99749 | -154.73108 | 38182 ft | 411 kts | 240° |
| 2026-05-04 22:59 | 23.96529 | -154.78272 | 38181 ft | 411 kts | 240° |
| 2026-05-04 22:59 | 23.93305 | -154.83438 | 38178 ft | 411 kts | 240° |
| 2026-05-04 23:00 | 23.90102 | -154.88565 | 38178 ft | 411 kts | 240° |
| 2026-05-04 23:00 | 23.86874 | -154.93726 | 38178 ft | 411 kts | 240° |
| 2026-05-04 23:01 | 23.83646 | -154.98882 | 38174 ft | 411 kts | 239° |
| 2026-05-04 23:01 | 23.80414 | -155.04039 | 38156 ft | 411 kts | 239° |
| 2026-05-04 23:02 | 23.77178 | -155.09198 | 38176 ft | 412 kts | 239° |
| 2026-05-04 23:02 | 23.73938 | -155.14358 | 38170 ft | 412 kts | 239° |
| 2026-05-04 23:03 | 23.70694 | -155.19518 | 38170 ft | 412 kts | 239° |
| 2026-05-04 23:03 | 23.67446 | -155.24679 | 38173 ft | 412 kts | 239° |
| 2026-05-04 23:04 | 23.64202 | -155.29830 | 38174 ft | 412 kts | 239° |
| 2026-05-04 23:04 | 23.60954 | -155.34979 | 38170 ft | 412 kts | 239° |
| 2026-05-04 23:05 | 23.58253 | -155.39260 | 38170 ft | 412 kts | 239° |
| 2026-05-04 23:05 | 23.54997 | -155.44410 | 38168 ft | 414 kts | 238° |
| 2026-05-04 23:06 | 23.50305 | -155.49679 | 38172 ft | 424 kts | 221° |
| 2026-05-04 23:06 | 23.46196 | -155.52708 | 38169 ft | 427 kts | 219° |
| 2026-05-04 23:07 | 23.41231 | -155.56265 | 38167 ft | 427 kts | 219° |
| 2026-05-04 23:07 | 23.36278 | -155.59828 | 38165 ft | 427 kts | 219° |
| 2026-05-04 23:08 | 23.31325 | -155.63396 | 38167 ft | 427 kts | 219° |
| 2026-05-04 23:08 | 23.26374 | -155.66962 | 38166 ft | 427 kts | 219° |
| 2026-05-04 23:09 | 23.21422 | -155.70527 | 38162 ft | 427 kts | 219° |
| 2026-05-04 23:09 | 23.16500 | -155.74066 | 38162 ft | 427 kts | 219° |
| 2026-05-04 23:10 | 23.11551 | -155.77622 | 38162 ft | 427 kts | 219° |
| 2026-05-04 23:10 | 23.06601 | -155.81176 | 38163 ft | 427 kts | 219° |
| 2026-05-04 23:11 | 23.01646 | -155.84730 | 38160 ft | 427 kts | 218° |
| 2026-05-04 23:11 | 22.96689 | -155.88283 | 38159 ft | 427 kts | 218° |
| 2026-05-04 23:12 | 22.91722 | -155.91839 | 38156 ft | 427 kts | 218° |
| 2026-05-04 23:12 | 22.86761 | -155.95388 | 38157 ft | 427 kts | 218° |
| 2026-05-04 23:13 | 22.81803 | -155.98932 | 38152 ft | 427 kts | 218° |
| 2026-05-04 23:13 | 22.76840 | -156.02476 | 38150 ft | 427 kts | 218° |
| 2026-05-04 23:14 | 22.71868 | -156.06023 | 38151 ft | 428 kts | 218° |
| 2026-05-04 23:14 | 22.66924 | -156.09547 | 38151 ft | 428 kts | 218° |
| 2026-05-04 23:15 | 22.61950 | -156.13090 | 38146 ft | 428 kts | 218° |
| 2026-05-04 23:15 | 22.56973 | -156.16631 | 38146 ft | 428 kts | 218° |
| 2026-05-04 23:16 | 22.51997 | -156.20169 | 38128 ft | 428 kts | 218° |
| 2026-05-04 23:16 | 22.47019 | -156.23705 | 38146 ft | 429 kts | 218° |
| 2026-05-04 23:17 | 22.42025 | -156.27250 | 38148 ft | 429 kts | 218° |
| 2026-05-04 23:17 | 22.37004 | -156.30813 | 37575 ft | 438 kts | 217° |
| 2026-05-04 23:18 | 22.34439 | -156.32636 | 36827 ft | 442 kts | 218° |
| 2026-05-04 23:18 | 22.32027 | -156.34668 | 36196 ft | 439 kts | 227° |
| 2026-05-04 23:18 | 22.29962 | -156.37074 | 35643 ft | 435 kts | 232° |
| 2026-05-04 23:18 | 22.28015 | -156.39583 | 35080 ft | 436 kts | 233° |
| 2026-05-04 23:19 | 22.26086 | -156.42108 | 34492 ft | 437 kts | 233° |
| 2026-05-04 23:19 | 22.24147 | -156.44645 | 33859 ft | 438 kts | 233° |
| 2026-05-04 23:19 | 22.22200 | -156.47186 | 33231 ft | 439 kts | 233° |
| 2026-05-04 23:19 | 22.20252 | -156.49723 | 32617 ft | 439 kts | 233° |
| 2026-05-04 23:20 | 22.18297 | -156.52265 | 31985 ft | 440 kts | 232° |
| 2026-05-04 23:20 | 22.16344 | -156.54803 | 31449 ft | 438 kts | 232° |
| 2026-05-04 23:20 | 22.14432 | -156.57283 | 31036 ft | 434 kts | 232° |
| 2026-05-04 23:20 | 22.12507 | -156.59781 | 30596 ft | 431 kts | 232° |
| 2026-05-04 23:21 | 22.10602 | -156.62251 | 30145 ft | 428 kts | 232° |
| 2026-05-04 23:21 | 22.08706 | -156.64708 | 29652 ft | 424 kts | 232° |
| 2026-05-04 23:21 | 22.06828 | -156.67141 | 29213 ft | 420 kts | 232° |
| 2026-05-04 23:21 | 22.04964 | -156.69553 | 28779 ft | 416 kts | 232° |
| 2026-05-04 23:22 | 22.03121 | -156.71939 | 28349 ft | 412 kts | 232° |
| 2026-05-04 23:22 | 22.01298 | -156.74297 | 27922 ft | 408 kts | 232° |
| 2026-05-04 23:22 | 21.99486 | -156.76640 | 27484 ft | 406 kts | 232° |
| 2026-05-04 23:22 | 21.97682 | -156.78973 | 27059 ft | 404 kts | 232° |
| 2026-05-04 23:23 | 21.95882 | -156.81299 | 26637 ft | 404 kts | 232° |
| 2026-05-04 23:23 | 21.94090 | -156.83613 | 26199 ft | 402 kts | 232° |
| 2026-05-04 23:23 | 21.92302 | -156.85922 | 25757 ft | 400 kts | 232° |
| 2026-05-04 23:23 | 21.90526 | -156.88213 | 25335 ft | 398 kts | 232° |
| 2026-05-04 23:24 | 21.88753 | -156.90500 | 24901 ft | 396 kts | 232° |
| 2026-05-04 23:24 | 21.86991 | -156.92771 | 24467 ft | 394 kts | 232° |
| 2026-05-04 23:24 | 21.85233 | -156.95037 | 24048 ft | 393 kts | 232° |
| 2026-05-04 23:24 | 21.83483 | -156.97292 | 23581 ft | 391 kts | 232° |
| 2026-05-04 23:25 | 21.81745 | -156.99534 | 23101 ft | 389 kts | 232° |
| 2026-05-04 23:25 | 21.80018 | -157.01760 | 22679 ft | 385 kts | 232° |
| 2026-05-04 23:25 | 21.78308 | -157.03964 | 22247 ft | 382 kts | 231° |
| 2026-05-04 23:25 | 21.76610 | -157.06152 | 21824 ft | 380 kts | 231° |
| 2026-05-04 23:26 | 21.74922 | -157.08327 | 21403 ft | 377 kts | 231° |
| 2026-05-04 23:26 | 21.73247 | -157.10482 | 20983 ft | 375 kts | 232° |
| 2026-05-04 23:26 | 21.71580 | -157.12628 | 20575 ft | 372 kts | 231° |
| 2026-05-04 23:26 | 21.69923 | -157.14760 | 20164 ft | 370 kts | 231° |
| 2026-05-04 23:27 | 21.68278 | -157.16876 | 19748 ft | 368 kts | 230° |
| 2026-05-04 23:27 | 21.66639 | -157.18982 | 19339 ft | 366 kts | 231° |
| 2026-05-04 23:27 | 21.65030 | -157.21050 | 18947 ft | 365 kts | 231° |
| 2026-05-04 23:27 | 21.63406 | -157.23137 | 18526 ft | 363 kts | 230° |
| 2026-05-04 23:28 | 21.61785 | -157.25218 | 18075 ft | 362 kts | 230° |
| 2026-05-04 23:28 | 21.60174 | -157.27286 | 17657 ft | 360 kts | 231° |
| 2026-05-04 23:28 | 21.58574 | -157.29338 | 17255 ft | 356 kts | 231° |
| 2026-05-04 23:28 | 21.56987 | -157.31374 | 16838 ft | 354 kts | 230° |
| 2026-05-04 23:29 | 21.55413 | -157.33391 | 16430 ft | 351 kts | 230° |
| 2026-05-04 23:29 | 21.53849 | -157.35395 | 16027 ft | 349 kts | 230° |
| 2026-05-04 23:29 | 21.52299 | -157.37382 | 15629 ft | 346 kts | 230° |
| 2026-05-04 23:29 | 21.50756 | -157.39357 | 15232 ft | 344 kts | 230° |
| 2026-05-04 23:30 | 21.49224 | -157.41319 | 14816 ft | 342 kts | 230° |
| 2026-05-04 23:30 | 21.47698 | -157.43272 | 14414 ft | 340 kts | 230° |
| 2026-05-04 23:30 | 21.46182 | -157.45211 | 14016 ft | 338 kts | 230° |
| 2026-05-04 23:30 | 21.44674 | -157.47140 | 13580 ft | 336 kts | 230° |
| 2026-05-04 23:31 | 21.43174 | -157.49057 | 13177 ft | 333 kts | 230° |
| 2026-05-04 23:31 | 21.41692 | -157.50951 | 12783 ft | 330 kts | 230° |
| 2026-05-04 23:31 | 21.40218 | -157.52833 | 12376 ft | 328 kts | 230° |
| 2026-05-04 23:31 | 21.38753 | -157.54703 | 11966 ft | 326 kts | 230° |
| 2026-05-04 23:32 | 21.37297 | -157.56561 | 11587 ft | 325 kts | 230° |
| 2026-05-04 23:32 | 21.35848 | -157.58409 | 11189 ft | 323 kts | 230° |
| 2026-05-04 23:32 | 21.34403 | -157.60251 | 10802 ft | 322 kts | 230° |
| 2026-05-04 23:32 | 21.32979 | -157.62066 | 10632 ft | 312 kts | 230° |
| 2026-05-04 23:33 | 21.31610 | -157.63808 | 10540 ft | 299 kts | 230° |
| 2026-05-04 23:33 | 21.30294 | -157.65483 | 10406 ft | 289 kts | 230° |
| 2026-05-04 23:33 | 21.29017 | -157.67108 | 10279 ft | 281 kts | 231° |
| 2026-05-04 23:33 | 21.27773 | -157.68694 | 10149 ft | 274 kts | 231° |
| 2026-05-04 23:34 | 21.26724 | -157.70370 | 9929 ft | 270 kts | 246° |
| 2026-05-04 23:34 | 21.26181 | -157.72292 | 9592 ft | 269 kts | 259° |
| 2026-05-04 23:34 | 21.25863 | -157.74263 | 9292 ft | 268 kts | 261° |
| 2026-05-04 23:34 | 21.25579 | -157.76233 | 9006 ft | 266 kts | 261° |
| 2026-05-04 23:35 | 21.25295 | -157.78196 | 8712 ft | 266 kts | 261° |
| 2026-05-04 23:35 | 21.25007 | -157.80147 | 8418 ft | 265 kts | 261° |
| 2026-05-04 23:35 | 21.24715 | -157.82101 | 8128 ft | 265 kts | 260° |
| 2026-05-04 23:35 | 21.24421 | -157.84046 | 7827 ft | 264 kts | 260° |
| 2026-05-04 23:36 | 21.24128 | -157.85981 | 7527 ft | 263 kts | 259° |
| 2026-05-04 23:36 | 21.23834 | -157.87911 | 7230 ft | 261 kts | 259° |
| 2026-05-04 23:36 | 21.23545 | -157.89805 | 6930 ft | 260 kts | 259° |
| 2026-05-04 23:36 | 21.23250 | -157.91741 | 6615 ft | 260 kts | 259° |
| 2026-05-04 23:37 | 21.22959 | -157.93643 | 6314 ft | 259 kts | 259° |
| 2026-05-04 23:37 | 21.22667 | -157.95549 | 5991 ft | 258 kts | 260° |
| 2026-05-04 23:37 | 21.22380 | -157.97420 | 5689 ft | 257 kts | 260° |
| 2026-05-04 23:37 | 21.21937 | -157.99299 | 5377 ft | 267 kts | 247° |
| 2026-05-04 23:38 | 21.20925 | -158.00989 | 5062 ft | 273 kts | 223° |
| 2026-05-04 23:38 | 21.19306 | -158.02005 | 4759 ft | 271 kts | 193° |
| 2026-05-04 23:38 | 21.17451 | -158.01988 | 4552 ft | 269 kts | 163° |
| 2026-05-04 23:38 | 21.15753 | -158.01161 | 4436 ft | 269 kts | 148° |